Time;durP1;ratioP1;P1;durP2;ratioP2;P2;SDS_P1;SDS_P2;PMS_P1;PMS_P2;Temp;Humidity;BMP_temperature;BMP_pressure;BME280_temperature;BME280_humidity;BME280_pressure;Samples;Min_cycle;Max_cycle;Signal;HPM_P1;HPM_P2
2021/08/13 00:00:53;;;;;;;19.57;17.70;;;;;;;;;;5035273;28;20440;-77
2021/08/13 00:03:20;;;;;;;18.77;17.10;;;;;;;;;;5035179;28;20423;-73
2021/08/13 00:05:46;;;;;;;19.23;17.47;;;;;;;;;;5036413;28;20455;-75
2021/08/13 00:08:12;;;;;;;19.67;17.80;;;;;;;;;;5035785;28;20486;-74
2021/08/13 00:10:38;;;;;;;18.50;16.70;;;;;;;;;;5029231;28;20412;-76
2021/08/13 00:13:04;;;;;;;18.53;16.93;;;;;;;;;;5037863;28;20949;-74
2021/08/13 00:15:30;;;;;;;19.30;17.30;;;;;;;;;;5038928;28;20778;-76
2021/08/13 00:17:56;;;;;;;18.40;16.70;;;;;;;;;;5038619;28;20404;-76
2021/08/13 00:20:23;;;;;;;20.20;18.10;;;;;;;;;;5038233;28;20415;-74
2021/08/13 00:22:49;;;;;;;20.53;18.63;;;;;;;;;;5038959;28;20419;-76
2021/08/13 00:25:15;;;;;;;20.07;18.23;;;;;;;;;;5036636;28;20439;-75
2021/08/13 00:27:41;;;;;;;19.07;17.37;;;;;;;;;;5035489;28;20424;-74
2021/08/13 00:30:08;;;;;;;19.40;17.50;;;;;;;;;;5035914;28;20778;-76
2021/08/13 00:32:34;;;;;;;19.00;17.30;;;;;;;;;;5035507;28;20947;-76
2021/08/13 00:35:00;;;;;;;19.50;17.47;;;;;;;;;;5035609;28;20455;-75
2021/08/13 00:37:26;;;;;;;20.40;18.40;;;;;;;;;;5035403;28;20416;-74
2021/08/13 00:39:52;;;;;;;18.07;16.47;;;;;;;;;;5035414;28;20420;-73
2021/08/13 00:42:18;;;;;;;19.10;17.30;;;;;;;;;;5035583;28;20420;-76
2021/08/13 00:44:44;;;;;;;19.63;17.73;;;;;;;;;;5035498;28;20433;-75
2021/08/13 00:47:10;;;;;;;17.47;15.97;;;;;;;;;;5035267;28;20781;-74
2021/08/13 00:49:36;;;;;;;20.20;18.07;;;;;;;;;;5035433;28;20425;-74
2021/08/13 00:52:03;;;;;;;20.60;18.70;;;;;;;;;;5035957;28;20517;-74
2021/08/13 00:54:29;;;;;;;19.77;17.70;;;;;;;;;;5033757;28;20444;-75
2021/08/13 00:56:55;;;;;;;20.47;18.17;;;;;;;;;;5034794;28;20416;-73
2021/08/13 00:59:21;;;;;;;18.83;17.07;;;;;;;;;;5035398;28;20421;-74
2021/08/13 01:01:47;;;;;;;19.50;17.57;;;;;;;;;;5035029;28;20886;-75
2021/08/13 01:04:13;;;;;;;17.70;16.10;;;;;;;;;;5034924;28;20439;-74
2021/08/13 01:06:39;;;;;;;18.33;16.53;;;;;;;;;;5034561;28;20424;-75
2021/08/13 01:09:06;;;;;;;19.20;17.27;;;;;;;;;;5035073;28;20746;-75
2021/08/13 01:11:44;;;;;;;18.63;16.77;;;;;;;;;;5034886;28;20805;-76
2021/08/13 01:14:29;;;;;;;19.80;17.90;;;;;;;;;;5034979;28;20502;-72
2021/08/13 01:16:56;;;;;;;18.40;16.30;;;;;;;;;;5034320;28;20409;-75
2021/08/13 01:19:28;;;;;;;20.30;18.40;;;;;;;;;;5034882;28;20497;-75
2021/08/13 01:22:00;;;;;;;19.60;17.77;;;;;;;;;;5034931;28;20408;-73
2021/08/13 01:24:28;;;;;;;19.23;17.53;;;;;;;;;;5035024;28;20436;-72
2021/08/13 01:26:59;;;;;;;18.43;16.73;;;;;;;;;;5034261;28;20416;-75
2021/08/13 01:29:30;;;;;;;18.77;16.97;;;;;;;;;;5034859;28;20435;-75
2021/08/13 01:32:03;;;;;;;20.53;18.63;;;;;;;;;;5034353;28;20910;-76
2021/08/13 01:34:30;;;;;;;19.90;17.93;;;;;;;;;;5034505;28;20436;-75
2021/08/13 01:36:56;;;;;;;19.37;17.63;;;;;;;;;;5032778;28;20806;-73
2021/08/13 01:39:23;;;;;;;18.57;16.87;;;;;;;;;;5034652;28;20416;-75
2021/08/13 01:41:49;;;;;;;18.27;16.57;;;;;;;;;;5034487;28;20416;-72
2021/08/13 01:44:16;;;;;;;18.90;17.20;;;;;;;;;;5034573;28;20432;-75
2021/08/13 01:46:43;;;;;;;17.23;15.63;;;;;;;;;;5033770;28;20419;-75
2021/08/13 01:49:10;;;;;;;20.63;18.63;;;;;;;;;;5034467;28;20421;-76
2021/08/13 01:51:37;;;;;;;20.00;18.10;;;;;;;;;;5034482;28;20750;-74
2021/08/13 01:54:04;;;;;;;18.30;16.70;;;;;;;;;;5034281;28;20468;-73
2021/08/13 01:56:31;;;;;;;20.10;18.20;;;;;;;;;;5034134;28;20824;-75
2021/08/13 01:58:58;;;;;;;21.20;18.87;;;;;;;;;;5034057;28;20417;-76
2021/08/13 02:01:24;;;;;;;21.80;19.73;;;;;;;;;;5033988;28;20420;-73
2021/08/13 02:03:50;;;;;;;20.83;19.00;;;;;;;;;;5033954;28;20442;-72
2021/08/13 02:06:17;;;;;;;19.57;17.77;;;;;;;;;;5032200;28;20452;-76
2021/08/13 02:08:44;;;;;;;19.10;17.33;;;;;;;;;;5033531;28;20428;-74
2021/08/13 02:11:12;;;;;;;21.40;19.50;;;;;;;;;;5033465;28;20428;-74
2021/08/13 02:13:38;;;;;;;22.60;20.33;;;;;;;;;;5033766;28;20498;-76
2021/08/13 02:16:09;;;;;;;20.70;18.57;;;;;;;;;;5033525;28;20444;-76
2021/08/13 02:18:38;;;;;;;18.70;17.10;;;;;;;;;;5033483;28;20448;-74
2021/08/13 02:21:05;;;;;;;21.83;18.50;;;;;;;;;;5033642;28;20416;-76
2021/08/13 02:23:31;;;;;;;23.53;21.50;;;;;;;;;;5033386;28;20908;-73
2021/08/13 02:25:57;;;;;;;23.67;21.37;;;;;;;;;;5033459;28;20417;-77
2021/08/13 02:28:23;;;;;;;23.17;21.07;;;;;;;;;;5033422;28;20416;-75
2021/08/13 02:30:49;;;;;;;22.67;20.47;;;;;;;;;;5033328;28;20862;-74
2021/08/13 02:33:15;;;;;;;23.40;21.17;;;;;;;;;;5033474;28;20455;-73
2021/08/13 02:35:44;;;;;;;23.80;21.50;;;;;;;;;;5033117;28;20447;-72
2021/08/13 02:38:12;;;;;;;22.07;19.70;;;;;;;;;;5033110;28;20443;-75
2021/08/13 02:40:40;;;;;;;20.87;18.97;;;;;;;;;;5033433;28;20416;-73
2021/08/13 02:43:08;;;;;;;21.50;19.40;;;;;;;;;;5033516;28;20439;-73
2021/08/13 02:45:37;;;;;;;24.50;22.40;;;;;;;;;;5033021;28;20445;-75
2021/08/13 02:48:03;;;;;;;24.47;21.97;;;;;;;;;;5032677;28;20409;-75
2021/08/13 02:50:29;;;;;;;21.70;19.60;;;;;;;;;;5032226;28;20786;-76
2021/08/13 02:52:58;;;;;;;22.27;20.10;;;;;;;;;;5033078;28;20466;-76
2021/08/13 02:55:26;;;;;;;22.37;20.17;;;;;;;;;;5033093;28;20881;-72
2021/08/13 02:57:53;;;;;;;23.53;21.43;;;;;;;;;;5032335;28;20558;-73
2021/08/13 03:00:20;;;;;;;17.03;15.33;;;;;;;;;;5033336;28;20448;-72
2021/08/13 03:02:47;;;;;;;21.23;19.13;;;;;;;;;;5033226;28;20821;-72
2021/08/13 03:05:14;;;;;;;21.27;18.77;;;;;;;;;;5032853;28;20435;-72
2021/08/13 03:07:40;;;;;;;20.93;18.93;;;;;;;;;;5034527;28;20908;-75
2021/08/13 03:10:07;;;;;;;21.17;19.07;;;;;;;;;;5033470;28;20420;-72
2021/08/13 03:12:33;;;;;;;22.20;20.07;;;;;;;;;;5032937;28;20456;-75
2021/08/13 03:15:00;;;;;;;23.80;21.60;;;;;;;;;;5032936;28;20555;-73
2021/08/13 03:17:26;;;;;;;23.77;21.30;;;;;;;;;;5032589;28;20434;-74
2021/08/13 03:19:53;;;;;;;23.33;21.03;;;;;;;;;;5032674;28;20424;-75
2021/08/13 03:22:20;;;;;;;26.07;23.20;;;;;;;;;;5032861;28;20896;-74
2021/08/13 03:24:46;;;;;;;23.53;21.23;;;;;;;;;;5022689;28;20432;-76
2021/08/13 03:27:12;;;;;;;25.57;23.07;;;;;;;;;;5032449;28;20498;-75
2021/08/13 03:29:38;;;;;;;25.20;22.80;;;;;;;;;;5032725;28;20409;-74
2021/08/13 03:32:04;;;;;;;22.50;20.43;;;;;;;;;;5032694;28;20419;-74
2021/08/13 03:34:31;;;;;;;25.00;22.50;;;;;;;;;;5032811;28;20429;-74
2021/08/13 03:37:01;;;;;;;27.10;24.40;;;;;;;;;;5032467;28;20457;-76
2021/08/13 03:39:27;;;;;;;24.90;22.50;;;;;;;;;;5023327;28;20411;-77
2021/08/13 03:41:53;;;;;;;25.70;23.07;;;;;;;;;;5032485;28;20510;-74
2021/08/13 03:44:19;;;;;;;23.83;21.17;;;;;;;;;;5032811;28;20427;-73
2021/08/13 03:46:45;;;;;;;25.73;22.70;;;;;;;;;;5032329;28;20404;-74
2021/08/13 03:49:11;;;;;;;28.67;25.83;;;;;;;;;;5032970;28;20478;-75
2021/08/13 03:51:37;;;;;;;23.50;21.10;;;;;;;;;;5032543;28;20412;-74
2021/08/13 03:54:05;;;;;;;29.40;23.97;;;;;;;;;;5032759;28;20494;-73
2021/08/13 03:56:31;;;;;;;27.43;24.30;;;;;;;;;;5032508;28;20452;-73
2021/08/13 03:58:57;;;;;;;26.27;23.47;;;;;;;;;;5033322;28;20423;-74
2021/08/13 04:01:23;;;;;;;25.00;22.50;;;;;;;;;;5033571;28;20451;-75
2021/08/13 04:03:49;;;;;;;27.10;22.30;;;;;;;;;;5036188;28;20436;-73
2021/08/13 04:06:15;;;;;;;26.50;23.90;;;;;;;;;;5036380;28;20819;-72
2021/08/13 04:08:41;;;;;;;27.07;24.37;;;;;;;;;;5039615;28;20434;-73
2021/08/13 04:11:07;;;;;;;27.50;24.70;;;;;;;;;;5036779;28;20408;-74
2021/08/13 04:13:33;;;;;;;27.70;24.97;;;;;;;;;;5036519;28;20460;-73
2021/08/13 04:15:59;;;;;;;25.83;23.20;;;;;;;;;;5036303;28;20421;-73
2021/08/13 04:18:25;;;;;;;26.47;23.70;;;;;;;;;;5035582;28;20413;-75
2021/08/13 04:20:52;;;;;;;25.60;22.90;;;;;;;;;;5036019;28;20773;-75
2021/08/13 04:23:18;;;;;;;26.63;24.03;;;;;;;;;;5035993;28;20446;-74
2021/08/13 04:25:44;;;;;;;25.00;22.60;;;;;;;;;;5036022;28;20467;-73
2021/08/13 04:28:10;;;;;;;24.60;22.13;;;;;;;;;;5035503;28;20859;-75
2021/08/13 04:30:36;;;;;;;24.20;21.60;;;;;;;;;;5036030;28;20777;-73
2021/08/13 04:33:09;;;;;;;25.37;22.87;;;;;;;;;;5035704;28;20451;-73
2021/08/13 04:35:35;;;;;;;25.63;22.97;;;;;;;;;;5035632;28;20441;-75
2021/08/13 04:38:02;;;;;;;25.03;22.63;;;;;;;;;;5035456;28;20416;-76
2021/08/13 04:40:28;;;;;;;25.50;22.93;;;;;;;;;;5034266;28;20897;-75
2021/08/13 04:42:54;;;;;;;27.87;25.17;;;;;;;;;;5035914;28;20436;-73
2021/08/13 04:45:20;;;;;;;25.10;22.40;;;;;;;;;;5035625;28;20801;-74
2021/08/13 04:47:46;;;;;;;29.13;24.10;;;;;;;;;;5035295;28;20501;-72
2021/08/13 04:50:12;;;;;;;25.10;22.60;;;;;;;;;;5035509;28;20499;-75
2021/08/13 04:52:45;;;;;;;26.80;24.20;;;;;;;;;;5034910;28;20577;-75
2021/08/13 04:55:11;;;;;;;33.80;27.60;;;;;;;;;;5035105;28;20940;-74
2021/08/13 04:57:37;;;;;;;28.77;25.67;;;;;;;;;;5034550;28;20416;-74
2021/08/13 05:00:04;;;;;;;28.30;25.07;;;;;;;;;;5034968;28;20420;-74
2021/08/13 05:02:30;;;;;;;25.80;23.30;;;;;;;;;;5034747;28;20506;-75
2021/08/13 05:04:59;;;;;;;27.80;24.70;;;;;;;;;;5034958;28;20502;-72
2021/08/13 05:07:25;;;;;;;26.43;23.83;;;;;;;;;;5034393;28;20450;-74
2021/08/13 05:09:52;;;;;;;31.20;25.27;;;;;;;;;;5034713;28;20448;-73
2021/08/13 05:12:18;;;;;;;26.47;23.77;;;;;;;;;;5034176;28;20840;-71
2021/08/13 05:14:44;;;;;;;27.20;24.30;;;;;;;;;;5033321;28;20915;-73
2021/08/13 05:17:10;;;;;;;29.03;26.20;;;;;;;;;;5034347;28;20414;-74
2021/08/13 05:19:36;;;;;;;27.87;25.10;;;;;;;;;;5034722;28;20431;-72
2021/08/13 05:22:02;;;;;;;27.53;24.63;;;;;;;;;;5034460;28;20439;-75
2021/08/13 05:24:28;;;;;;;27.57;25.00;;;;;;;;;;5034731;28;20929;-72
2021/08/13 05:26:54;;;;;;;27.50;25.10;;;;;;;;;;5034250;28;20420;-74
2021/08/13 05:29:20;;;;;;;27.90;24.90;;;;;;;;;;5034360;28;20415;-74
2021/08/13 05:31:46;;;;;;;28.40;25.50;;;;;;;;;;5034300;28;20417;-74
2021/08/13 05:34:12;;;;;;;27.63;23.27;;;;;;;;;;5034432;28;20563;-74
2021/08/13 05:36:38;;;;;;;27.33;24.53;;;;;;;;;;5033868;28;20445;-74
2021/08/13 05:39:04;;;;;;;26.73;24.20;;;;;;;;;;5034228;28;20404;-73
2021/08/13 05:41:30;;;;;;;27.53;24.80;;;;;;;;;;5034368;28;20407;-74
2021/08/13 05:43:56;;;;;;;27.60;24.67;;;;;;;;;;5034383;28;20481;-75
2021/08/13 05:46:22;;;;;;;25.77;23.27;;;;;;;;;;5035066;28;20415;-74
2021/08/13 05:48:48;;;;;;;28.73;25.80;;;;;;;;;;5033760;28;20414;-74
2021/08/13 05:51:14;;;;;;;25.07;22.57;;;;;;;;;;5034295;28;20803;-73
2021/08/13 05:53:40;;;;;;;24.80;22.40;;;;;;;;;;5033845;28;20476;-75
2021/08/13 05:56:06;;;;;;;22.67;20.47;;;;;;;;;;5034069;28;20906;-75
2021/08/13 05:58:32;;;;;;;22.40;20.13;;;;;;;;;;5025861;28;20408;-73
2021/08/13 06:00:58;;;;;;;21.00;18.87;;;;;;;;;;5033813;28;20412;-75
2021/08/13 06:03:24;;;;;;;17.50;15.80;;;;;;;;;;5032160;28;20412;-72
2021/08/13 06:05:50;;;;;;;17.60;15.90;;;;;;;;;;5033524;28;20836;-74
2021/08/13 06:08:16;;;;;;;16.67;15.17;;;;;;;;;;5033195;28;20417;-75
2021/08/13 06:10:42;;;;;;;15.43;14.03;;;;;;;;;;5034135;28;20412;-74
2021/08/13 06:13:08;;;;;;;17.30;15.33;;;;;;;;;;5033452;28;20541;-74
2021/08/13 06:15:34;;;;;;;16.00;14.50;;;;;;;;;;5033465;28;20439;-72
2021/08/13 06:18:00;;;;;;;14.20;12.90;;;;;;;;;;5033341;28;20719;-75
2021/08/13 06:20:26;;;;;;;15.60;14.20;;;;;;;;;;5033526;28;20435;-75
2021/08/13 06:22:52;;;;;;;14.70;12.40;;;;;;;;;;5032826;28;20413;-74
2021/08/13 06:25:18;;;;;;;18.60;12.87;;;;;;;;;;5033286;28;20428;-74
2021/08/13 06:27:45;;;;;;;14.43;12.90;;;;;;;;;;5033215;28;20769;-74
2021/08/13 06:30:11;;;;;;;15.60;13.20;;;;;;;;;;5033067;28;20444;-72
2021/08/13 06:32:38;;;;;;;15.50;13.83;;;;;;;;;;5031805;28;20472;-72
2021/08/13 06:35:05;;;;;;;13.63;12.33;;;;;;;;;;5032963;28;20435;-74
2021/08/13 06:37:31;;;;;;;14.77;12.23;;;;;;;;;;5031524;28;20466;-74
2021/08/13 06:39:57;;;;;;;12.23;11.17;;;;;;;;;;5033487;28;20420;-74
2021/08/13 06:42:23;;;;;;;11.23;10.23;;;;;;;;;;5033604;28;20443;-73
2021/08/13 06:44:49;;;;;;;10.83;9.83;;;;;;;;;;5032924;28;20428;-74
2021/08/13 06:47:15;;;;;;;12.30;10.20;;;;;;;;;;5032599;28;20416;-74
2021/08/13 06:49:41;;;;;;;11.93;9.70;;;;;;;;;;5032885;28;20743;-75
2021/08/13 06:52:10;;;;;;;13.47;11.50;;;;;;;;;;5029051;28;20475;-75
2021/08/13 06:54:36;;;;;;;13.03;10.00;;;;;;;;;;5022130;28;20472;-76
2021/08/13 06:57:03;;;;;;;11.37;10.37;;;;;;;;;;5028408;28;20578;-73
2021/08/13 06:59:29;;;;;;;11.53;9.87;;;;;;;;;;5027542;28;20475;-76
2021/08/13 07:01:55;;;;;;;11.07;10.07;;;;;;;;;;5030477;28;20405;-76
2021/08/13 07:04:21;;;;;;;9.90;8.90;;;;;;;;;;5029216;28;20436;-74
2021/08/13 07:06:47;;;;;;;10.47;9.63;;;;;;;;;;5028776;28;20443;-76
2021/08/13 07:09:13;;;;;;;10.20;9.20;;;;;;;;;;5029180;28;20809;-76
2021/08/13 07:11:39;;;;;;;10.43;9.53;;;;;;;;;;5029108;28;20541;-76
2021/08/13 07:14:05;;;;;;;12.10;9.87;;;;;;;;;;5028855;28;20471;-76
2021/08/13 07:16:31;;;;;;;10.73;9.83;;;;;;;;;;5028988;28;20421;-73
2021/08/13 07:18:57;;;;;;;10.43;9.50;;;;;;;;;;5029027;28;20478;-73
2021/08/13 07:21:23;;;;;;;9.63;8.63;;;;;;;;;;5027658;28;20428;-73
2021/08/13 07:23:49;;;;;;;11.27;10.10;;;;;;;;;;5027613;28;20457;-73
2021/08/13 07:26:15;;;;;;;10.37;9.37;;;;;;;;;;5028989;28;20430;-74
2021/08/13 07:28:41;;;;;;;11.37;10.37;;;;;;;;;;5028649;28;20420;-74
2021/08/13 07:31:07;;;;;;;11.27;10.27;;;;;;;;;;5029000;28;20900;-73
2021/08/13 07:33:33;;;;;;;15.43;10.67;;;;;;;;;;5030850;28;20555;-73
2021/08/13 07:35:59;;;;;;;10.63;9.63;;;;;;;;;;5039084;28;20408;-75
2021/08/13 07:38:25;;;;;;;11.63;10.63;;;;;;;;;;5037054;28;20828;-74
2021/08/13 07:40:51;;;;;;;14.30;12.40;;;;;;;;;;5032960;28;20416;-75
2021/08/13 07:43:17;;;;;;;12.90;11.70;;;;;;;;;;5036167;28;20519;-74
2021/08/13 07:45:43;;;;;;;12.47;11.33;;;;;;;;;;5032656;28;20557;-73
2021/08/13 07:48:09;;;;;;;12.57;11.37;;;;;;;;;;5032501;28;20416;-74
2021/08/13 07:50:35;;;;;;;11.23;10.23;;;;;;;;;;5038264;28;20426;-76
2021/08/13 07:53:01;;;;;;;11.27;10.30;;;;;;;;;;5037299;28;20452;-74
2021/08/13 07:55:27;;;;;;;11.23;10.23;;;;;;;;;;5032770;28;20519;-74
2021/08/13 07:57:53;;;;;;;11.13;10.13;;;;;;;;;;5032052;28;20924;-76
2021/08/13 08:00:19;;;;;;;12.13;11.03;;;;;;;;;;5032366;28;20432;-75
2021/08/13 08:02:45;;;;;;;11.03;10.13;;;;;;;;;;5032800;28;20427;-74
2021/08/13 08:05:11;;;;;;;10.90;9.97;;;;;;;;;;5032313;28;20424;-75
2021/08/13 08:07:37;;;;;;;11.60;10.40;;;;;;;;;;5032182;28;21208;-72
2021/08/13 08:10:04;;;;;;;10.20;9.40;;;;;;;;;;5032622;28;21172;-75
2021/08/13 08:12:29;;;;;;;10.13;9.33;;;;;;;;;;5032164;28;20900;-74
2021/08/13 08:14:55;;;;;;;12.13;11.03;;;;;;;;;;5032294;28;20439;-76
2021/08/13 08:17:21;;;;;;;10.57;9.60;;;;;;;;;;5039780;28;20419;-73
2021/08/13 08:19:47;;;;;;;10.60;9.60;;;;;;;;;;5032123;28;20420;-74
2021/08/13 08:22:14;;;;;;;11.50;10.50;;;;;;;;;;5039776;28;20416;-73
2021/08/13 08:24:40;;;;;;;11.03;10.03;;;;;;;;;;5038608;28;20471;-75
2021/08/13 08:27:06;;;;;;;11.03;10.03;;;;;;;;;;5043474;28;20415;-76
2021/08/13 08:29:32;;;;;;;12.33;9.80;;;;;;;;;;5038109;28;20751;-77
2021/08/13 08:31:58;;;;;;;11.97;10.30;;;;;;;;;;5030942;28;20493;-74
2021/08/13 08:34:25;;;;;;;10.57;9.57;;;;;;;;;;5041333;28;20475;-76
2021/08/13 08:36:51;;;;;;;11.40;10.27;;;;;;;;;;5044806;28;20408;-74
2021/08/13 08:39:17;;;;;;;11.10;10.07;;;;;;;;;;5036924;28;20412;-73
2021/08/13 08:41:44;;;;;;;11.30;10.30;;;;;;;;;;5043080;28;20482;-73
2021/08/13 08:44:10;;;;;;;10.83;9.73;;;;;;;;;;5051174;28;20463;-75
2021/08/13 08:46:37;;;;;;;13.50;8.90;;;;;;;;;;5032854;28;20420;-76
2021/08/13 08:49:04;;;;;;;10.83;9.90;;;;;;;;;;5036481;28;20416;-73
2021/08/13 08:51:30;;;;;;;11.57;10.57;;;;;;;;;;5032092;28;20416;-74
2021/08/13 08:53:57;;;;;;;10.97;9.97;;;;;;;;;;5031758;28;20476;-73
2021/08/13 08:56:25;;;;;;;10.00;9.10;;;;;;;;;;5032616;28;20750;-72
2021/08/13 08:58:51;;;;;;;11.20;10.30;;;;;;;;;;5033909;28;20428;-75
2021/08/13 09:01:17;;;;;;;11.00;10.00;;;;;;;;;;5034207;28;20789;-74
2021/08/13 09:03:44;;;;;;;10.17;9.37;;;;;;;;;;5034102;28;20478;-74
2021/08/13 09:06:11;;;;;;;11.27;10.30;;;;;;;;;;5033817;28;20440;-75
2021/08/13 09:08:37;;;;;;;13.07;11.67;;;;;;;;;;5041412;28;20427;-72
2021/08/13 09:11:04;;;;;;;10.77;9.70;;;;;;;;;;5044733;28;20413;-72
2021/08/13 09:13:30;;;;;;;10.77;9.87;;;;;;;;;;5050886;28;20460;-73
2021/08/13 09:16:08;;;;;;;10.77;9.80;;;;;;;;;;5050640;28;20409;-72
2021/08/13 09:18:34;;;;;;;10.07;9.17;;;;;;;;;;5053281;28;20907;-73
2021/08/13 09:21:01;;;;;;;9.87;9.00;;;;;;;;;;5051192;28;20423;-73
2021/08/13 09:23:30;;;;;;;11.20;10.20;;;;;;;;;;5049767;28;20456;-72
2021/08/13 09:26:00;;;;;;;10.00;9.00;;;;;;;;;;5050374;28;20420;-75
2021/08/13 09:28:38;;;;;;;10.00;9.30;;;;;;;;;;5050108;28;20412;-73
2021/08/13 09:31:18;;;;;;;11.20;10.10;;;;;;;;;;5037021;28;20416;-72
2021/08/13 09:33:48;;;;;;;10.57;9.60;;;;;;;;;;5032219;28;20456;-73
2021/08/13 09:36:14;;;;;;;10.30;9.30;;;;;;;;;;5030567;28;20490;-72
2021/08/13 09:38:43;;;;;;;9.33;8.40;;;;;;;;;;5030877;28;20451;-76
2021/08/13 09:41:12;;;;;;;10.40;9.50;;;;;;;;;;5030974;28;20413;-72
2021/08/13 09:43:54;;;;;;;10.50;9.50;;;;;;;;;;5030780;28;20502;-73
2021/08/13 09:46:21;;;;;;;11.30;10.40;;;;;;;;;;5030750;28;20424;-75
2021/08/13 09:48:47;;;;;;;9.73;8.80;;;;;;;;;;5030349;28;20741;-72
2021/08/13 09:51:32;;;;;;;10.30;9.40;;;;;;;;;;5030708;28;20470;-74
2021/08/13 09:54:05;;;;;;;9.40;8.70;;;;;;;;;;5031234;28;20470;-74
2021/08/13 09:56:32;;;;;;;10.70;9.83;;;;;;;;;;5032287;28;20973;-73
2021/08/13 09:59:37;;;;;;;11.00;10.10;;;;;;;;;;5030085;28;20888;-76
2021/08/13 10:02:15;;;;;;;9.30;8.40;;;;;;;;;;5007303;28;20798;-74
2021/08/13 10:04:42;;;;;;;10.70;9.70;;;;;;;;;;5007767;28;20437;-75
2021/08/13 10:07:08;;;;;;;10.20;9.30;;;;;;;;;;5019642;28;20483;-74
2021/08/13 10:09:34;;;;;;;8.63;7.93;;;;;;;;;;5029935;28;20451;-73
2021/08/13 10:12:05;;;;;;;9.77;8.87;;;;;;;;;;5029986;28;20417;-73
2021/08/13 10:14:35;;;;;;;10.37;9.57;;;;;;;;;;5029792;28;20455;-74
2021/08/13 10:17:14;;;;;;;10.17;9.37;;;;;;;;;;5029704;28;20441;-74
2021/08/13 10:19:41;;;;;;;10.77;9.87;;;;;;;;;;5029764;28;20408;-75
2021/08/13 10:22:07;;;;;;;10.17;9.17;;;;;;;;;;5029600;28;20921;-73
2021/08/13 10:24:35;;;;;;;9.13;8.33;;;;;;;;;;5040698;28;20441;-73
2021/08/13 10:27:02;;;;;;;10.73;9.93;;;;;;;;;;5029376;28;20409;-73
2021/08/13 10:29:28;;;;;;;9.50;8.70;;;;;;;;;;5029703;28;20414;-72
2021/08/13 10:31:55;;;;;;;9.60;8.80;;;;;;;;;;5029435;28;20996;-73
2021/08/13 10:34:21;;;;;;;9.30;8.50;;;;;;;;;;5029160;28;20551;-74
2021/08/13 10:36:47;;;;;;;8.33;7.73;;;;;;;;;;5028969;28;20426;-72
2021/08/13 10:39:15;;;;;;;9.47;8.77;;;;;;;;;;5029490;28;20420;-72
2021/08/13 10:41:43;;;;;;;8.90;8.10;;;;;;;;;;5027921;28;20428;-73
2021/08/13 10:44:11;;;;;;;9.67;8.77;;;;;;;;;;5029360;28;20448;-73
2021/08/13 10:46:38;;;;;;;9.10;8.20;;;;;;;;;;5028790;28;20448;-74
2021/08/13 10:49:05;;;;;;;10.10;9.30;;;;;;;;;;5027998;28;20543;-76
2021/08/13 10:51:33;;;;;;;9.47;8.63;;;;;;;;;;5029559;28;20775;-74
2021/08/13 10:54:06;;;;;;;8.83;8.17;;;;;;;;;;5029439;28;20907;-73
2021/08/13 10:56:39;;;;;;;8.43;7.77;;;;;;;;;;5029085;28;20417;-75
2021/08/13 10:59:06;;;;;;;8.90;8.10;;;;;;;;;;5029275;28;20435;-76
2021/08/13 11:01:32;;;;;;;9.20;8.40;;;;;;;;;;5029372;28;20503;-74
2021/08/13 11:03:58;;;;;;;8.87;8.20;;;;;;;;;;5027718;28;20479;-73
2021/08/13 11:06:36;;;;;;;8.50;7.70;;;;;;;;;;5029001;28;20448;-73
2021/08/13 11:09:03;;;;;;;8.37;7.67;;;;;;;;;;5029000;28;20486;-75
2021/08/13 11:11:49;;;;;;;8.40;7.70;;;;;;;;;;5029268;28;20416;-74
2021/08/13 11:14:25;;;;;;;9.20;8.40;;;;;;;;;;5028790;28;20832;-74
2021/08/13 11:16:51;;;;;;;9.40;8.60;;;;;;;;;;5028905;28;20420;-75
2021/08/13 11:19:19;;;;;;;9.10;8.40;;;;;;;;;;5029121;28;20482;-75
2021/08/13 11:21:47;;;;;;;9.07;8.37;;;;;;;;;;5029222;28;20500;-73
2021/08/13 11:24:14;;;;;;;8.87;8.10;;;;;;;;;;5028565;28;20785;-75
2021/08/13 11:26:58;;;;;;;8.67;8.00;;;;;;;;;;5027089;28;20428;-73
2021/08/13 11:29:30;;;;;;;8.80;8.10;;;;;;;;;;5028846;28;20413;-74
2021/08/13 11:32:07;;;;;;;8.13;7.50;;;;;;;;;;5027285;28;20424;-73
2021/08/13 11:34:53;;;;;;;9.07;8.17;;;;;;;;;;5019234;28;20513;-74
2021/08/13 11:37:28;;;;;;;8.37;7.67;;;;;;;;;;5031529;28;20520;-74
2021/08/13 11:39:55;;;;;;;9.73;8.97;;;;;;;;;;5032034;28;20502;-77
2021/08/13 11:42:22;;;;;;;9.40;8.50;;;;;;;;;;5028642;28;20444;-73
2021/08/13 11:44:48;;;;;;;9.73;8.90;;;;;;;;;;5028927;28;20482;-74
2021/08/13 11:47:18;;;;;;;8.27;7.47;;;;;;;;;;5028684;28;20421;-75
2021/08/13 11:49:45;;;;;;;8.77;7.87;;;;;;;;;;5028886;28;20811;-73
2021/08/13 11:52:11;;;;;;;8.73;8.03;;;;;;;;;;5028865;28;20483;-75
2021/08/13 11:54:37;;;;;;;9.20;8.30;;;;;;;;;;5028866;28;20440;-75
2021/08/13 11:57:14;;;;;;;9.57;8.80;;;;;;;;;;5029062;28;20419;-76
2021/08/13 11:59:40;;;;;;;9.73;9.03;;;;;;;;;;5027582;28;20835;-76
2021/08/13 12:02:06;;;;;;;9.67;8.87;;;;;;;;;;5029093;28;20424;-76
2021/08/13 12:04:32;;;;;;;9.97;9.07;;;;;;;;;;5028605;28;20428;-73
2021/08/13 12:06:59;;;;;;;9.80;9.00;;;;;;;;;;5028466;28;20435;-77
2021/08/13 12:09:44;;;;;;;9.60;8.80;;;;;;;;;;5030863;28;20424;-76
2021/08/13 12:12:11;;;;;;;8.83;7.93;;;;;;;;;;5028519;28;20959;-75
2021/08/13 12:14:37;;;;;;;9.33;8.40;;;;;;;;;;5028209;28;20551;-75
2021/08/13 12:17:04;;;;;;;9.47;8.67;;;;;;;;;;5028172;28;20448;-75
2021/08/13 12:19:31;;;;;;;10.80;9.87;;;;;;;;;;5028164;28;20481;-75
2021/08/13 12:21:57;;;;;;;10.83;9.40;;;;;;;;;;5030270;28;20419;-74
2021/08/13 12:24:33;;;;;;;10.50;9.50;;;;;;;;;;5031513;28;20428;-73
2021/08/13 12:27:01;;;;;;;10.23;9.27;;;;;;;;;;5031600;28;20463;-74
2021/08/13 12:29:30;;;;;;;10.73;9.83;;;;;;;;;;5031978;28;20968;-72
2021/08/13 12:31:57;;;;;;;10.10;9.00;;;;;;;;;;5030221;28;20440;-75
2021/08/13 12:34:24;;;;;;;10.97;9.83;;;;;;;;;;5031419;28;20978;-74
2021/08/13 12:37:09;;;;;;;9.20;8.50;;;;;;;;;;5031301;28;20420;-74
2021/08/13 12:39:45;;;;;;;10.50;9.60;;;;;;;;;;5023014;28;20413;-74
2021/08/13 12:42:13;;;;;;;9.60;8.80;;;;;;;;;;5031680;28;20432;-75
2021/08/13 12:44:41;;;;;;;9.30;8.53;;;;;;;;;;5031526;28;20932;-75
2021/08/13 12:47:08;;;;;;;9.30;8.60;;;;;;;;;;5031119;28;21198;-75
2021/08/13 12:49:37;;;;;;;10.50;9.53;;;;;;;;;;5031252;28;20813;-75
2021/08/13 12:52:09;;;;;;;10.43;9.53;;;;;;;;;;5031530;28;20412;-73
2021/08/13 12:54:36;;;;;;;11.00;10.10;;;;;;;;;;5031115;28;20476;-74
2021/08/13 12:57:03;;;;;;;11.23;9.17;;;;;;;;;;5031202;28;20728;-75
2021/08/13 12:59:34;;;;;;;11.30;10.30;;;;;;;;;;5032938;28;20416;-76
2021/08/13 13:02:00;;;;;;;9.60;8.80;;;;;;;;;;5032128;28;20421;-75
2021/08/13 13:04:38;;;;;;;10.83;9.80;;;;;;;;;;5031002;28;20488;-74
2021/08/13 13:07:05;;;;;;;10.73;9.73;;;;;;;;;;5030756;28;20816;-76
2021/08/13 13:09:32;;;;;;;12.53;11.23;;;;;;;;;;5033623;28;20436;-74
2021/08/13 13:12:13;;;;;;;13.33;11.43;;;;;;;;;;5031668;28;20901;-72
2021/08/13 13:14:39;;;;;;;12.10;10.90;;;;;;;;;;5030876;28;20577;-72
2021/08/13 13:17:12;;;;;;;10.90;9.80;;;;;;;;;;5031338;28;20881;-76
2021/08/13 13:19:39;;;;;;;11.80;10.73;;;;;;;;;;5030833;28;20420;-76
2021/08/13 13:22:19;;;;;;;11.17;10.07;;;;;;;;;;5031528;28;20408;-73
2021/08/13 13:24:45;;;;;;;10.40;9.40;;;;;;;;;;5020109;28;20440;-76
2021/08/13 13:27:11;;;;;;;11.73;10.77;;;;;;;;;;5030319;28;20665;-76
2021/08/13 13:29:46;;;;;;;11.83;10.93;;;;;;;;;;5030646;28;20499;-74
2021/08/13 13:32:16;;;;;;;11.47;10.37;;;;;;;;;;5030440;28;20450;-74
2021/08/13 13:35:04;;;;;;;12.33;11.30;;;;;;;;;;5030610;28;20502;-75
2021/08/13 13:37:30;;;;;;;15.90;14.50;;;;;;;;;;5031412;28;20773;-74
2021/08/13 13:39:56;;;;;;;13.40;12.10;;;;;;;;;;5043087;28;20811;-73
2021/08/13 13:42:27;;;;;;;13.13;11.93;;;;;;;;;;5030574;28;20413;-75
2021/08/13 13:45:03;;;;;;;15.70;11.60;;;;;;;;;;5030492;28;20428;-75
2021/08/13 13:47:29;;;;;;;14.17;12.87;;;;;;;;;;5019450;28;20401;-75
2021/08/13 13:49:55;;;;;;;13.10;11.90;;;;;;;;;;5030252;28;20415;-74
2021/08/13 13:52:21;;;;;;;12.73;11.63;;;;;;;;;;5030313;28;20417;-76
2021/08/13 13:54:47;;;;;;;13.10;12.00;;;;;;;;;;5031619;28;21069;-75
2021/08/13 13:57:13;;;;;;;14.20;13.10;;;;;;;;;;5030336;28;20451;-75
2021/08/13 13:59:39;;;;;;;13.60;12.50;;;;;;;;;;5030288;28;20804;-76
2021/08/13 14:02:05;;;;;;;14.10;12.87;;;;;;;;;;5030433;28;20420;-74
2021/08/13 14:04:31;;;;;;;14.13;12.90;;;;;;;;;;5029722;28;20440;-74
2021/08/13 14:06:57;;;;;;;12.77;11.77;;;;;;;;;;5029934;28;20436;-74
2021/08/13 14:09:23;;;;;;;12.80;11.80;;;;;;;;;;5032574;28;20451;-75
2021/08/13 14:11:49;;;;;;;12.67;11.67;;;;;;;;;;5030284;28;20424;-74
2021/08/13 14:14:15;;;;;;;12.90;11.70;;;;;;;;;;5030021;28;20833;-75
2021/08/13 14:16:41;;;;;;;13.30;12.10;;;;;;;;;;5029715;28;20610;-74
2021/08/13 14:19:07;;;;;;;13.83;12.60;;;;;;;;;;5029599;28;20433;-76
2021/08/13 14:21:33;;;;;;;14.37;12.97;;;;;;;;;;5029935;28;20416;-75
2021/08/13 14:23:59;;;;;;;12.00;10.90;;;;;;;;;;5029520;28;20440;-75
2021/08/13 14:26:25;;;;;;;13.20;12.00;;;;;;;;;;5031286;28;20420;-75